Time;durP1;ratioP1;P1;durP2;ratioP2;P2;SDS_P1;SDS_P2;PMS_P1;PMS_P2;Temp;Humidity;BMP_temperature;BMP_pressure;BME280_temperature;BME280_humidity;BME280_pressure;Samples;Min_cycle;Max_cycle;Signal;HPM_P1;HPM_P2
2022/06/02 00:01:28;;;;;;;;;;;19.50;97.00;;;;;;5074887;28;19916;-51
2022/06/02 00:04:05;;;;;;;;;;;19.50;96.90;;;;;;5074460;28;20339;-53
2022/06/02 00:06:46;;;;;;;;;;;19.50;96.90;;;;;;5074417;28;20409;-50
2022/06/02 00:09:25;;;;;;;;;;;19.50;96.90;;;;;;5074362;28;19908;-51
2022/06/02 00:11:56;;;;;;;;;;;19.50;96.90;;;;;;5074309;28;19916;-52
2022/06/02 00:14:40;;;;;;;;;;;19.50;96.90;;;;;;5074535;28;19998;-52
2022/06/02 00:17:25;;;;;;;;;;;19.50;97.00;;;;;;5074560;28;20003;-54
2022/06/02 00:20:00;;;;;;;;;;;19.50;97.00;;;;;;5074326;28;19960;-55
2022/06/02 00:22:31;;;;;;;;;;;19.50;96.90;;;;;;5074489;28;20020;-53
2022/06/02 00:25:02;;;;;;;;;;;19.50;97.00;;;;;;5074019;28;19961;-51
2022/06/02 00:27:34;;;;;;;;;;;19.50;97.00;;;;;;5074547;28;19959;-50
2022/06/02 00:30:06;;;;;;;;;;;19.50;97.00;;;;;;5074732;28;19962;-50
2022/06/02 00:32:31;;;;;;;;;;;19.50;97.00;;;;;;5074271;28;19915;-53
2022/06/02 00:35:10;;;;;;;;;;;19.50;97.00;;;;;;5074247;28;19995;-55
2022/06/02 00:37:55;;;;;;;;;;;19.50;97.00;;;;;;5056289;28;20003;-53
2022/06/02 00:40:22;;;;;;;;;;;19.50;97.00;;;;;;5074078;28;19919;-51
2022/06/02 00:42:48;;;;;;;;;;;19.40;96.90;;;;;;5074514;28;19962;-53
2022/06/02 00:45:15;;;;;;;;;;;19.50;97.00;;;;;;5074238;28;19967;-49
2022/06/02 00:47:46;;;;;;;;;;;19.50;97.00;;;;;;5074166;28;19996;-52
2022/06/02 00:50:32;;;;;;;;;;;19.50;97.00;;;;;;5074244;28;20262;-52
2022/06/02 00:53:13;;;;;;;;;;;19.50;97.00;;;;;;5056000;28;19935;-52
2022/06/02 00:58:35;;;;;;;;;;;19.50;96.90;;;;;;5073603;28;19935;-52
2022/06/02 01:01:03;;;;;;;;;;;19.50;97.00;;;;;;5056003;28;20270;-51
2022/06/02 01:03:34;;;;;;;;;;;19.50;97.00;;;;;;5073759;28;19917;-54
2022/06/02 01:06:14;;;;;;;;;;;19.50;97.00;;;;;;5074038;28;20267;-52
2022/06/02 01:08:58;;;;;;;;;;;19.50;97.00;;;;;;5073865;28;20436;-50
2022/06/02 01:11:29;;;;;;;;;;;19.50;97.00;;;;;;5073679;28;19955;-49
2022/06/02 01:14:00;;;;;;;;;;;19.50;97.00;;;;;;5073556;28;19952;-52
2022/06/02 01:16:55;;;;;;;;;;;19.50;97.00;;;;;;5055832;28;19958;-51
2022/06/02 01:19:21;;;;;;;;;;;19.50;97.00;;;;;;4984506;28;19914;-49
2022/06/02 01:21:55;;;;;;;;;;;19.50;97.00;;;;;;5073573;28;19909;-53
2022/06/02 01:24:39;;;;;;;;;;;19.50;97.00;;;;;;5073710;28;19916;-52
2022/06/02 01:27:04;;;;;;;;;;;19.40;97.00;;;;;;5073371;28;19908;-54
2022/06/02 01:29:39;;;;;;;;;;;19.50;97.00;;;;;;5073490;28;19931;-53
2022/06/02 01:32:08;;;;;;;;;;;19.50;97.00;;;;;;5074006;28;19909;-50
2022/06/02 01:34:43;;;;;;;;;;;19.40;97.00;;;;;;5073320;28;19909;-50
2022/06/02 01:37:21;;;;;;;;;;;19.50;97.00;;;;;;5073675;28;20391;-51
2022/06/02 01:39:49;;;;;;;;;;;19.40;97.00;;;;;;5073548;28;20339;-54
2022/06/02 01:42:33;;;;;;;;;;;19.50;97.00;;;;;;5073613;28;19913;-49
2022/06/02 01:45:05;;;;;;;;;;;19.40;96.90;;;;;;5073576;28;19908;-52
2022/06/02 01:47:30;;;;;;;;;;;19.50;97.00;;;;;;5073238;28;20358;-53
2022/06/02 01:50:15;;;;;;;;;;;19.50;97.00;;;;;;5055492;28;19916;-49
2022/06/02 01:52:55;;;;;;;;;;;19.50;97.00;;;;;;5073545;28;19908;-52
2022/06/02 01:55:39;;;;;;;;;;;19.40;97.00;;;;;;5073216;28;19927;-52
2022/06/02 01:58:23;;;;;;;;;;;19.50;97.00;;;;;;5073281;28;19909;-53
2022/06/02 02:00:54;;;;;;;;;;;19.40;97.00;;;;;;5073083;28;20037;-54
2022/06/02 02:03:19;;;;;;;;;;;19.50;97.00;;;;;;5073553;28;19912;-50
2022/06/02 02:05:48;;;;;;;;;;;19.50;97.00;;;;;;5073004;28;20287;-54
2022/06/02 02:08:19;;;;;;;;;;;19.50;97.00;;;;;;5073328;28;20430;-52
2022/06/02 02:10:51;;;;;;;;;;;19.40;97.00;;;;;;5076333;28;19991;-51
2022/06/02 02:13:28;;;;;;;;;;;19.40;97.00;;;;;;5076573;28;20415;-50
2022/06/02 02:16:10;;;;;;;;;;;19.40;97.00;;;;;;5076610;28;19909;-53
2022/06/02 02:18:39;;;;;;;;;;;19.40;97.00;;;;;;5076924;28;19909;-53
2022/06/02 02:21:23;;;;;;;;;;;19.40;97.00;;;;;;5076744;28;20007;-50
2022/06/02 02:24:11;;;;;;;;;;;19.50;97.00;;;;;;5076742;28;19916;-49
2022/06/02 02:26:41;;;;;;;;;;;19.40;97.00;;;;;;5076281;28;19912;-50
2022/06/02 02:29:16;;;;;;;;;;;19.40;97.00;;;;;;5076807;28;19916;-50
2022/06/02 02:31:46;;;;;;;;;;;19.40;97.00;;;;;;5076723;28;20381;-51
2022/06/02 02:34:20;;;;;;;;;;;19.40;97.00;;;;;;5076597;28;20347;-50
2022/06/02 02:37:04;;;;;;;;;;;19.40;97.00;;;;;;5058522;28;19909;-52
2022/06/02 02:39:35;;;;;;;;;;;19.40;97.00;;;;;;5076470;28;20308;-51
2022/06/02 02:42:04;;;;;;;;;;;19.40;97.00;;;;;;5076267;28;20393;-53
2022/06/02 02:44:35;;;;;;;;;;;19.40;97.00;;;;;;5076180;28;19916;-52
2022/06/02 02:47:07;;;;;;;;;;;19.40;97.00;;;;;;5076086;28;19915;-53
2022/06/02 02:49:37;;;;;;;;;;;19.40;97.00;;;;;;5076238;28;19916;-53
2022/06/02 02:52:15;;;;;;;;;;;19.40;97.00;;;;;;5076277;28;20284;-52
2022/06/02 02:54:44;;;;;;;;;;;19.40;97.00;;;;;;5076152;28;19943;-53
2022/06/02 02:57:09;;;;;;;;;;;19.40;97.00;;;;;;5075849;28;19909;-54
2022/06/02 02:59:48;;;;;;;;;;;19.40;97.00;;;;;;5075998;28;19919;-54
2022/06/02 03:02:13;;;;;;;;;;;19.40;97.00;;;;;;5076130;28;19913;-50
2022/06/02 03:04:56;;;;;;;;;;;19.40;97.00;;;;;;5075642;28;20418;-54
2022/06/02 03:07:22;;;;;;;;;;;19.40;97.00;;;;;;5075613;28;19908;-53
2022/06/02 03:09:54;;;;;;;;;;;19.40;97.00;;;;;;5057847;28;19923;-54
2022/06/02 03:12:32;;;;;;;;;;;19.40;97.00;;;;;;5075665;28;19990;-52
2022/06/02 03:15:17;;;;;;;;;;;19.40;97.00;;;;;;5057884;28;19912;-50
2022/06/02 03:17:43;;;;;;;;;;;19.40;97.00;;;;;;5056559;28;19913;-50
2022/06/02 03:20:23;;;;;;;;;;;19.40;97.00;;;;;;5075599;28;19966;-52
2022/06/02 03:22:52;;;;;;;;;;;19.40;97.00;;;;;;5075596;28;19991;-53
2022/06/02 03:25:26;;;;;;;;;;;19.40;97.00;;;;;;5075683;28;19908;-52
2022/06/02 03:27:58;;;;;;;;;;;19.40;97.00;;;;;;5075601;28;19952;-51
2022/06/02 03:30:26;;;;;;;;;;;19.40;97.00;;;;;;5057508;28;20440;-54
2022/06/02 03:33:05;;;;;;;;;;;19.40;97.00;;;;;;5075203;28;19919;-54
2022/06/02 03:35:42;;;;;;;;;;;19.40;97.00;;;;;;5075249;28;20266;-52
2022/06/02 03:38:11;;;;;;;;;;;19.40;97.00;;;;;;5075268;28;19912;-50
2022/06/02 03:40:36;;;;;;;;;;;19.40;97.00;;;;;;5075220;28;19920;-51
2022/06/02 03:43:40;;;;;;;;;;;19.40;97.00;;;;;;5074843;28;19913;-52
2022/06/02 03:46:17;;;;;;;;;;;19.40;97.00;;;;;;4974097;28;19957;-54
2022/06/02 03:48:55;;;;;;;;;;;19.40;97.00;;;;;;4974067;28;20008;-53
2022/06/02 03:51:20;;;;;;;;;;;19.40;97.00;;;;;;5036807;28;19908;-52
2022/06/02 03:53:58;;;;;;;;;;;19.40;97.00;;;;;;5074318;28;19921;-54
2022/06/02 03:56:23;;;;;;;;;;;19.40;97.00;;;;;;5074688;28;20272;-54
2022/06/02 03:59:08;;;;;;;;;;;19.40;97.00;;;;;;5074638;28;19909;-52
2022/06/02 04:01:37;;;;;;;;;;;19.40;97.00;;;;;;5074495;28;20367;-52
2022/06/02 04:04:16;;;;;;;;;;;19.40;97.00;;;;;;5056897;28;19908;-54
2022/06/02 04:07:06;;;;;;;;;;;19.40;97.00;;;;;;5074745;28;19916;-54
2022/06/02 04:09:44;;;;;;;;;;;19.40;97.00;;;;;;5073947;28;19908;-51
2022/06/02 04:15:18;;;;;;;;;;;19.40;97.00;;;;;;5074342;28;19916;-50
2022/06/02 04:17:49;;;;;;;;;;;19.40;97.00;;;;;;5074402;28;20270;-50
2022/06/02 04:23:02;;;;;;;;;;;19.50;97.00;;;;;;5074120;28;20282;-53
2022/06/02 04:25:48;;;;;;;;;;;19.40;97.00;;;;;;5074095;28;19961;-53
2022/06/02 04:28:20;;;;;;;;;;;19.40;97.00;;;;;;5074072;28;19913;-54
2022/06/02 04:31:05;;;;;;;;;;;19.40;97.00;;;;;;5074085;28;19912;-53
2022/06/02 04:33:35;;;;;;;;;;;19.40;97.00;;;;;;5073706;28;20018;-53
2022/06/02 04:36:08;;;;;;;;;;;19.40;97.00;;;;;;5073756;28;19917;-52
2022/06/02 04:38:38;;;;;;;;;;;19.40;97.00;;;;;;5073878;28;19909;-53
2022/06/02 04:41:23;;;;;;;;;;;19.40;97.00;;;;;;5073909;28;19912;-54
2022/06/02 04:44:08;;;;;;;;;;;19.40;97.00;;;;;;5074066;28;20355;-52
2022/06/02 04:46:50;;;;;;;;;;;19.40;97.00;;;;;;5074072;28;19915;-54
2022/06/02 04:49:26;;;;;;;;;;;19.40;97.00;;;;;;5073858;28;20286;-52
2022/06/02 04:51:59;;;;;;;;;;;19.40;97.00;;;;;;5073853;28;19908;-53
2022/06/02 04:54:44;;;;;;;;;;;19.40;97.00;;;;;;5074100;28;19920;-53
2022/06/02 04:57:15;;;;;;;;;;;19.40;97.00;;;;;;5073384;28;19954;-53
2022/06/02 05:00:03;;;;;;;;;;;19.40;97.00;;;;;;5073886;28;19916;-53
2022/06/02 05:02:29;;;;;;;;;;;19.40;97.00;;;;;;5058642;28;19935;-53
2022/06/02 05:05:24;;;;;;;;;;;19.40;97.00;;;;;;5073367;28;19908;-55
2022/06/02 05:08:04;;;;;;;;;;;19.40;97.10;;;;;;4984758;28;19918;-54
2022/06/02 05:10:42;;;;;;;;;;;19.40;97.10;;;;;;5073515;28;19908;-52
2022/06/02 05:13:31;;;;;;;;;;;19.40;97.00;;;;;;5073375;28;19916;-54
2022/06/02 05:15:56;;;;;;;;;;;19.40;97.00;;;;;;5073188;28;19909;-54
2022/06/02 05:18:25;;;;;;;;;;;19.40;97.00;;;;;;5055064;28;19916;-57
2022/06/02 05:20:59;;;;;;;;;;;19.40;97.10;;;;;;5073491;28;20046;-52
2022/06/02 05:23:43;;;;;;;;;;;19.40;97.00;;;;;;5073290;28;19994;-55
2022/06/02 05:26:11;;;;;;;;;;;19.40;97.10;;;;;;5055119;28;19967;-53
2022/06/02 05:28:55;;;;;;;;;;;19.40;97.10;;;;;;5072690;28;19928;-51
2022/06/02 05:31:21;;;;;;;;;;;19.40;97.10;;;;;;5073339;28;19908;-54
2022/06/02 05:34:08;;;;;;;;;;;19.50;97.10;;;;;;5073716;28;20099;-55
2022/06/02 05:37:00;;;;;;;;;;;19.40;97.10;;;;;;5073310;28;19919;-53
2022/06/02 05:39:26;;;;;;;;;;;19.40;97.10;;;;;;5072760;28;19922;-51
2022/06/02 05:42:04;;;;;;;;;;;19.40;97.10;;;;;;5072939;28;19991;-55
2022/06/02 05:44:48;;;;;;;;;;;19.50;97.10;;;;;;5074273;28;19909;-52
2022/06/02 05:47:21;;;;;;;;;;;19.40;97.10;;;;;;5058654;28;19909;-52
2022/06/02 05:50:06;;;;;;;;;;;19.40;97.10;;;;;;5076702;28;20324;-54
2022/06/02 05:52:40;;;;;;;;;;;19.40;97.10;;;;;;5076915;28;19916;-53
2022/06/02 05:55:08;;;;;;;;;;;19.40;97.10;;;;;;5076668;28;19946;-52
2022/06/02 05:57:37;;;;;;;;;;;19.40;97.10;;;;;;5076786;28;19963;-54
2022/06/02 06:00:03;;;;;;;;;;;19.40;97.10;;;;;;5076512;28;19944;-55
2022/06/02 06:02:33;;;;;;;;;;;19.40;97.10;;;;;;5076258;28;19916;-53
2022/06/02 06:05:01;;;;;;;;;;;19.40;97.20;;;;;;5076126;28;19919;-50
2022/06/02 06:07:44;;;;;;;;;;;19.40;97.20;;;;;;5076393;28;19915;-52
2022/06/02 06:10:20;;;;;;;;;;;19.40;97.20;;;;;;5076168;28;20282;-53
2022/06/02 06:12:48;;;;;;;;;;;19.40;97.40;;;;;;5058437;28;20283;-52
2022/06/02 06:15:29;;;;;;;;;;;19.40;97.10;;;;;;5076332;28;19919;-52
2022/06/02 06:17:57;;;;;;;;;;;19.40;97.20;;;;;;5076270;28;19931;-50
2022/06/02 06:20:41;;;;;;;;;;;19.40;97.20;;;;;;5058050;28;19913;-52
2022/06/02 06:23:13;;;;;;;;;;;19.40;97.20;;;;;;5075945;28;20381;-53
2022/06/02 06:25:49;;;;;;;;;;;19.40;97.20;;;;;;5076254;28;20416;-53
2022/06/02 06:28:15;;;;;;;;;;;19.40;97.20;;;;;;5075973;28;19914;-50
2022/06/02 06:30:50;;;;;;;;;;;19.40;97.20;;;;;;5075772;28;20347;-53
2022/06/02 06:33:24;;;;;;;;;;;19.40;97.20;;;;;;5076262;28;19908;-52
2022/06/02 06:35:55;;;;;;;;;;;19.40;97.20;;;;;;5075672;28;19912;-49
2022/06/02 06:38:21;;;;;;;;;;;19.40;97.20;;;;;;5058003;28;20211;-55
2022/06/02 06:41:05;;;;;;;;;;;19.40;97.20;;;;;;5075674;28;19913;-50
2022/06/02 06:43:33;;;;;;;;;;;19.40;97.20;;;;;;5075866;28;19948;-51
2022/06/02 06:45:58;;;;;;;;;;;19.40;97.30;;;;;;5075883;28;20003;-53
2022/06/02 06:48:30;;;;;;;;;;;19.40;97.20;;;;;;5075418;28;19952;-53
2022/06/02 06:50:58;;;;;;;;;;;19.40;97.20;;;;;;5075558;28;19908;-51
2022/06/02 06:53:29;;;;;;;;;;;19.40;97.20;;;;;;5075241;28;19908;-55
2022/06/02 06:56:04;;;;;;;;;;;19.40;97.20;;;;;;5074889;28;19909;-53
2022/06/02 06:58:42;;;;;;;;;;;19.40;97.20;;;;;;5075683;28;20244;-54
2022/06/02 07:01:17;;;;;;;;;;;19.40;97.20;;;;;;5057667;28;20027;-52
2022/06/02 07:03:59;;;;;;;;;;;19.40;97.30;;;;;;5075691;28;19958;-55
2022/06/02 07:06:31;;;;;;;;;;;19.40;97.30;;;;;;5057661;28;19995;-52
2022/06/02 07:09:14;;;;;;;;;;;19.40;97.30;;;;;;5075290;28;19912;-53
2022/06/02 07:14:29;;;;;;;;;;;19.40;97.50;;;;;;5075171;28;20329;-55
2022/06/02 07:16:57;;;;;;;;;;;19.40;97.30;;;;;;5075354;28;19908;-51
2022/06/02 07:19:36;;;;;;;;;;;19.40;97.30;;;;;;5075181;28;19999;-54
2022/06/02 07:22:09;;;;;;;;;;;19.40;97.30;;;;;;5075645;28;19955;-52
2022/06/02 07:24:53;;;;;;;;;;;19.40;97.30;;;;;;5075499;28;19908;-53
2022/06/02 07:27:18;;;;;;;;;;;19.40;97.30;;;;;;5075301;28;19970;-54
2022/06/02 07:29:56;;;;;;;;;;;19.40;97.30;;;;;;5075209;28;20364;-53
2022/06/02 07:32:40;;;;;;;;;;;19.40;97.30;;;;;;5074624;28;19909;-55
2022/06/02 07:35:24;;;;;;;;;;;19.40;97.30;;;;;;5074673;28;19908;-55
2022/06/02 07:37:57;;;;;;;;;;;19.40;97.30;;;;;;5074606;28;19908;-53
2022/06/02 07:40:23;;;;;;;;;;;19.40;97.30;;;;;;5074770;28;19912;-49
2022/06/02 07:42:58;;;;;;;;;;;19.40;97.40;;;;;;5057061;28;19912;-51
2022/06/02 07:45:35;;;;;;;;;;;19.40;97.40;;;;;;5074472;28;19909;-51
2022/06/02 07:48:22;;;;;;;;;;;19.40;97.40;;;;;;5056705;28;19915;-54
2022/06/02 07:51:06;;;;;;;;;;;19.40;97.60;;;;;;5074714;28;20101;-55
2022/06/02 07:53:36;;;;;;;;;;;19.40;97.40;;;;;;5074301;28;19913;-55
2022/06/02 07:56:10;;;;;;;;;;;19.40;97.40;;;;;;5074266;28;19913;-52
2022/06/02 07:58:44;;;;;;;;;;;19.40;97.40;;;;;;5074570;28;19953;-54
2022/06/02 08:01:16;;;;;;;;;;;19.40;97.40;;;;;;5074069;28;20363;-54
2022/06/02 08:04:01;;;;;;;;;;;19.40;97.40;;;;;;5073740;28;20564;-53
2022/06/02 08:06:42;;;;;;;;;;;19.40;97.40;;;;;;5073362;28;19912;-50
2022/06/02 08:09:27;;;;;;;;;;;19.40;97.40;;;;;;5074157;28;19909;-54
2022/06/02 08:12:05;;;;;;;;;;;19.40;97.40;;;;;;5074006;28;20025;-50
2022/06/02 08:14:37;;;;;;;;;;;19.40;97.40;;;;;;5056419;28;19909;-53
2022/06/02 08:17:22;;;;;;;;;;;19.40;97.40;;;;;;5074101;28;19909;-50
2022/06/02 08:19:57;;;;;;;;;;;19.40;97.40;;;;;;5073795;28;20282;-54
2022/06/02 08:22:28;;;;;;;;;;;19.40;97.40;;;;;;5056385;28;19966;-51
2022/06/02 08:24:59;;;;;;;;;;;19.40;97.40;;;;;;5074203;28;19908;-53
2022/06/02 08:27:28;;;;;;;;;;;19.40;97.40;;;;;;5074118;28;19915;-52
2022/06/02 08:29:59;;;;;;;;;;;19.40;97.40;;;;;;5074088;28;19909;-53
2022/06/02 08:32:36;;;;;;;;;;;19.40;97.40;;;;;;5074264;28;20361;-53
2022/06/02 08:35:13;;;;;;;;;;;19.40;97.40;;;;;;5074041;28;20393;-53
2022/06/02 08:37:43;;;;;;;;;;;19.40;97.40;;;;;;5074058;28;19965;-54
2022/06/02 08:40:09;;;;;;;;;;;19.40;97.40;;;;;;5073843;28;19912;-54
2022/06/02 08:42:34;;;;;;;;;;;19.40;97.40;;;;;;5055827;28;20470;-53
2022/06/02 08:45:00;;;;;;;;;;;19.40;97.40;;;;;;5073877;28;20309;-54
2022/06/02 08:47:38;;;;;;;;;;;19.40;97.40;;;;;;5073755;28;19908;-53
2022/06/02 08:50:10;;;;;;;;;;;19.40;97.40;;;;;;5073678;28;19909;-53
2022/06/02 08:52:38;;;;;;;;;;;19.40;97.40;;;;;;5073852;28;19962;-54
2022/06/02 08:55:10;;;;;;;;;;;19.40;97.40;;;;;;5073804;28;20374;-54
2022/06/02 08:57:35;;;;;;;;;;;19.40;97.40;;;;;;5055630;28;19916;-53
2022/06/02 09:00:18;;;;;;;;;;;19.40;97.40;;;;;;5073403;28;20351;-53
2022/06/02 09:03:03;;;;;;;;;;;19.40;97.40;;;;;;5073575;28;19966;-51
2022/06/02 09:05:44;;;;;;;;;;;19.40;97.40;;;;;;5073585;28;19924;-49
2022/06/02 09:08:28;;;;;;;;;;;19.50;97.40;;;;;;5073048;28;19908;-50
2022/06/02 09:11:11;;;;;;;;;;;19.40;97.40;;;;;;5073400;28;19909;-54
2022/06/02 09:13:46;;;;;;;;;;;19.40;97.40;;;;;;5073172;28;19909;-50
2022/06/02 09:16:22;;;;;;;;;;;19.40;97.40;;;;;;5073551;28;19944;-53
2022/06/02 09:19:06;;;;;;;;;;;19.50;97.40;;;;;;5075502;28;19908;-52
2022/06/02 09:21:34;;;;;;;;;;;19.50;97.40;;;;;;5077353;28;20367;-52
2022/06/02 09:24:11;;;;;;;;;;;19.40;97.40;;;;;;5077287;28;19912;-54
2022/06/02 09:26:36;;;;;;;;;;;19.40;97.40;;;;;;5077394;28;20382;-54
2022/06/02 09:29:02;;;;;;;;;;;19.40;97.40;;;;;;5077781;28;19916;-53
2022/06/02 09:31:36;;;;;;;;;;;19.40;97.40;;;;;;5077066;28;20003;-53
2022/06/02 09:34:13;;;;;;;;;;;19.40;97.40;;;;;;5077020;28;19916;-53
2022/06/02 09:36:57;;;;;;;;;;;19.50;97.40;;;;;;5076572;28;19913;-53
2022/06/02 09:39:25;;;;;;;;;;;19.40;97.40;;;;;;5076765;28;19908;-54
2022/06/02 09:42:09;;;;;;;;;;;19.40;97.40;;;;;;5077184;28;20306;-53
2022/06/02 09:44:53;;;;;;;;;;;19.40;97.40;;;;;;5077156;28;19908;-53
2022/06/02 09:47:40;;;;;;;;;;;19.50;97.40;;;;;;5076957;28;19966;-53
2022/06/02 09:50:10;;;;;;;;;;;19.50;97.40;;;;;;5077241;28;19909;-56
2022/06/02 09:52:38;;;;;;;;;;;19.50;97.40;;;;;;5076984;28;19908;-53
2022/06/02 09:55:06;;;;;;;;;;;19.50;97.40;;;;;;5076814;28;19946;-52
2022/06/02 09:58:02;;;;;;;;;;;19.50;97.30;;;;;;5076875;28;19916;-54
2022/06/02 10:00:39;;;;;;;;;;;19.50;97.30;;;;;;5076859;28;20355;-55
2022/06/02 10:03:15;;;;;;;;;;;19.50;97.40;;;;;;5058870;28;19992;-55
2022/06/02 10:05:50;;;;;;;;;;;19.50;97.30;;;;;;5076952;28;19999;-56
2022/06/02 10:08:15;;;;;;;;;;;19.50;97.30;;;;;;5076645;28;20003;-53
2022/06/02 10:10:54;;;;;;;;;;;19.50;97.40;;;;;;5058750;28;20275;-55
2022/06/02 10:13:27;;;;;;;;;;;19.50;97.30;;;;;;5076585;28;19908;-56
2022/06/02 10:16:12;;;;;;;;;;;19.50;97.40;;;;;;5076783;28;19913;-55
2022/06/02 10:18:41;;;;;;;;;;;19.50;97.40;;;;;;5076546;28;20252;-53
2022/06/02 10:21:16;;;;;;;;;;;19.50;97.30;;;;;;5076493;28;19913;-55
2022/06/02 10:23:41;;;;;;;;;;;19.50;97.40;;;;;;5076245;28;19912;-53
2022/06/02 10:26:10;;;;;;;;;;;19.50;97.40;;;;;;5058216;28;19969;-54
2022/06/02 10:29:04;;;;;;;;;;;19.50;97.40;;;;;;5075667;28;20293;-56
2022/06/02 10:31:51;;;;;;;;;;;19.50;97.40;;;;;;5075574;28;19995;-55
2022/06/02 10:34:35;;;;;;;;;;;19.50;97.40;;;;;;5076352;28;19915;-51
2022/06/02 10:37:11;;;;;;;;;;;19.50;97.40;;;;;;5075879;28;19915;-53
2022/06/02 10:39:40;;;;;;;;;;;19.50;97.40;;;;;;5075823;28;19909;-52
2022/06/02 10:42:08;;;;;;;;;;;19.50;97.40;;;;;;5076018;28;19912;-55
2022/06/02 10:44:53;;;;;;;;;;;19.50;97.40;;;;;;5075778;28;19909;-55
2022/06/02 10:47:37;;;;;;;;;;;19.50;97.40;;;;;;5075668;28;20015;-54
2022/06/02 10:50:21;;;;;;;;;;;19.50;97.40;;;;;;5075891;28;19908;-55
2022/06/02 10:52:58;;;;;;;;;;;19.50;97.40;;;;;;5076010;28;19913;-56
2022/06/02 10:55:42;;;;;;;;;;;19.50;97.40;;;;;;5076025;28;19920;-55
2022/06/02 10:58:26;;;;;;;;;;;19.50;97.40;;;;;;5075835;28;19923;-53
2022/06/02 11:01:06;;;;;;;;;;;19.50;97.40;;;;;;5075336;28;19980;-55
2022/06/02 11:03:38;;;;;;;;;;;19.50;97.40;;;;;;5075549;28;19912;-55
2022/06/02 11:06:22;;;;;;;;;;;19.50;97.40;;;;;;5075762;28;19916;-55
2022/06/02 11:08:48;;;;;;;;;;;19.50;97.40;;;;;;5075549;28;19912;-54
2022/06/02 11:11:19;;;;;;;;;;;19.50;97.40;;;;;;5057801;28;19909;-54
2022/06/02 11:13:53;;;;;;;;;;;19.50;97.40;;;;;;5075461;28;20010;-55
2022/06/02 11:16:27;;;;;;;;;;;19.50;97.40;;;;;;5075406;28;19965;-53
2022/06/02 11:19:04;;;;;;;;;;;19.50;97.40;;;;;;5075822;28;20263;-56
2022/06/02 11:21:43;;;;;;;;;;;19.50;97.40;;;;;;5075380;28;19913;-55
2022/06/02 11:24:27;;;;;;;;;;;19.50;97.40;;;;;;5075072;28;19940;-53
2022/06/02 11:27:19;;;;;;;;;;;19.50;97.40;;;;;;5057174;28;19913;-53
2022/06/02 11:30:03;;;;;;;;;;;19.50;97.40;;;;;;5036464;28;19908;-55
2022/06/02 11:32:37;;;;;;;;;;;19.50;97.40;;;;;;5074970;28;20256;-53
2022/06/02 11:35:15;;;;;;;;;;;19.50;97.40;;;;;;5074987;28;19977;-54
2022/06/02 11:38:00;;;;;;;;;;;19.60;97.40;;;;;;5074805;28;19915;-52
2022/06/02 11:40:31;;;;;;;;;;;19.50;97.40;;;;;;5057079;28;19916;-55
2022/06/02 11:43:06;;;;;;;;;;;19.60;97.40;;;;;;5074948;28;19917;-54
2022/06/02 11:45:34;;;;;;;;;;;19.50;97.40;;;;;;5074737;28;19954;-55
2022/06/02 11:48:20;;;;;;;;;;;19.50;97.40;;;;;;5056853;28;19909;-52
2022/06/02 11:50:55;;;;;;;;;;;19.50;97.40;;;;;;5074797;28;20317;-55
2022/06/02 11:53:23;;;;;;;;;;;19.50;97.40;;;;;;5074757;28;19909;-54
2022/06/02 11:55:54;;;;;;;;;;;19.50;97.50;;;;;;5074643;28;19943;-55
2022/06/02 11:58:26;;;;;;;;;;;19.60;97.50;;;;;;5055994;28;19908;-55
2022/06/02 12:01:12;;;;;;;;;;;19.60;97.40;;;;;;5074385;28;20317;-53
2022/06/02 12:03:44;;;;;;;;;;;19.50;97.40;;;;;;5074639;28;19965;-53
2022/06/02 12:06:28;;;;;;;;;;;19.50;97.40;;;;;;5074359;28;19915;-54
2022/06/02 12:09:12;;;;;;;;;;;19.50;97.50;;;;;;5056067;28;19948;-56
2022/06/02 12:11:56;;;;;;;;;;;19.50;97.50;;;;;;5074229;28;19908;-55
2022/06/02 12:14:28;;;;;;;;;;;19.60;97.50;;;;;;5074347;28;19908;-55
2022/06/02 12:17:01;;;;;;;;;;;19.60;97.40;;;;;;5074328;28;19908;-54
2022/06/02 12:19:33;;;;;;;;;;;19.50;97.50;;;;;;5056115;28;19974;-56
2022/06/02 12:22:00;;;;;;;;;;;19.50;97.40;;;;;;5074113;28;19923;-54
2022/06/02 12:24:31;;;;;;;;;;;19.50;97.40;;;;;;5074354;28;19909;-54
2022/06/02 12:27:10;;;;;;;;;;;19.60;97.40;;;;;;5073661;28;19919;-54
2022/06/02 12:29:46;;;;;;;;;;;19.60;97.70;;;;;;5074188;28;19919;-53
2022/06/02 12:32:20;;;;;;;;;;;19.50;97.40;;;;;;5073660;28;19915;-54
2022/06/02 12:35:04;;;;;;;;;;;19.50;97.40;;;;;;5073738;28;19909;-53
2022/06/02 12:37:36;;;;;;;;;;;19.50;97.50;;;;;;5073460;28;20278;-52
2022/06/02 12:40:13;;;;;;;;;;;19.50;97.50;;;;;;5073508;28;19912;-53
2022/06/02 12:42:45;;;;;;;;;;;19.50;97.50;;;;;;5074045;28;20067;-52
2022/06/02 12:45:20;;;;;;;;;;;19.50;97.50;;;;;;5073601;28;19909;-54
2022/06/02 12:48:02;;;;;;;;;;;19.50;97.50;;;;;;5074204;28;20348;-51
2022/06/02 12:50:33;;;;;;;;;;;19.50;97.50;;;;;;5073918;28;19954;-50
2022/06/02 12:53:17;;;;;;;;;;;19.50;97.50;;;;;;5072812;28;19913;-50
2022/06/02 12:55:58;;;;;;;;;;;19.50;97.50;;;;;;5073627;28;20393;-54
2022/06/02 12:58:24;;;;;;;;;;;19.50;97.50;;;;;;5073637;28;20385;-55
2022/06/02 13:00:56;;;;;;;;;;;19.50;97.70;;;;;;5073540;28;19912;-54
2022/06/02 13:03:30;;;;;;;;;;;19.50;97.50;;;;;;5073399;28;19913;-55
2022/06/02 13:06:18;;;;;;;;;;;19.50;97.50;;;;;;5073530;28;19909;-54
2022/06/02 13:08:53;;;;;;;;;;;19.50;97.50;;;;;;5073069;28;20030;-53
2022/06/02 13:11:37;;;;;;;;;;;19.50;97.50;;;;;;5073672;28;19913;-52
2022/06/02 13:14:05;;;;;;;;;;;19.50;97.50;;;;;;5073557;28;19908;-53
2022/06/02 13:16:55;;;;;;;;;;;19.50;97.50;;;;;;5072805;28;19916;-53
2022/06/02 13:19:41;;;;;;;;;;;19.50;97.40;;;;;;5073612;28;19908;-54
2022/06/02 13:22:17;;;;;;;;;;;19.60;97.50;;;;;;5073098;28;20432;-54
2022/06/02 13:24:52;;;;;;;;;;;19.50;97.50;;;;;;5073907;28;19908;-53
2022/06/02 13:27:17;;;;;;;;;;;19.60;97.50;;;;;;5073056;28;19983;-54
2022/06/02 13:30:01;;;;;;;;;;;19.60;97.50;;;;;;5073254;28;19916;-52
2022/06/02 13:32:45;;;;;;;;;;;19.60;97.50;;;;;;5073789;28;20007;-55
2022/06/02 13:35:29;;;;;;;;;;;19.60;97.50;;;;;;5073144;28;19995;-53
2022/06/02 13:37:57;;;;;;;;;;;19.60;97.50;;;;;;5072846;28;19908;-54
2022/06/02 13:40:41;;;;;;;;;;;19.60;97.50;;;;;;5073025;28;19920;-52
2022/06/02 13:43:07;;;;;;;;;;;19.60;97.50;;;;;;5072939;28;19913;-54
2022/06/02 13:45:44;;;;;;;;;;;19.60;97.50;;;;;;5073032;28;19916;-53
2022/06/02 13:48:33;;;;;;;;;;;19.60;97.50;;;;;;5072767;28;19909;-53
2022/06/02 13:51:17;;;;;;;;;;;19.60;97.50;;;;;;5054960;28;20255;-54
2022/06/02 13:59:35;;;;;;;;;;;19.60;97.50;;;;;;5072858;28;20412;-53
2022/06/02 14:02:19;;;;;;;;;;;19.60;97.50;;;;;;5072833;28;19912;-51
2022/06/02 14:04:47;;;;;;;;;;;19.60;97.50;;;;;;5072448;28;19908;-54
2022/06/02 14:07:18;;;;;;;;;;;19.60;97.50;;;;;;5076467;28;19963;-52
2022/06/02 14:09:49;;;;;;;;;;;19.60;97.50;;;;;;5076230;28;20016;-53
2022/06/02 14:12:26;;;;;;;;;;;19.60;97.50;;;;;;5076705;28;19909;-51
2022/06/02 14:15:07;;;;;;;;;;;19.60;97.50;;;;;;5076416;28;19951;-49
2022/06/02 14:17:41;;;;;;;;;;;19.60;97.50;;;;;;5076110;28;19978;-50
2022/06/02 14:20:15;;;;;;;;;;;19.60;97.50;;;;;;5076188;28;19920;-52
2022/06/02 14:22:41;;;;;;;;;;;19.60;97.50;;;;;;5058314;28;19918;-52
2022/06/02 14:25:29;;;;;;;;;;;19.60;97.50;;;;;;5076033;28;19908;-53
2022/06/02 14:28:06;;;;;;;;;;;19.60;97.50;;;;;;5075787;28;20271;-52
2022/06/02 14:30:36;;;;;;;;;;;19.60;97.50;;;;;;5075866;28;19908;-52
2022/06/02 14:33:30;;;;;;;;;;;19.60;97.50;;;;;;5075762;28;19957;-53
2022/06/02 14:36:02;;;;;;;;;;;19.60;97.50;;;;;;5054438;28;19954;-53
2022/06/02 14:38:46;;;;;;;;;;;19.60;97.50;;;;;;5076155;28;20003;-53
2022/06/02 14:41:11;;;;;;;;;;;19.60;97.50;;;;;;5075600;28;19913;-51
2022/06/02 14:43:40;;;;;;;;;;;19.60;97.50;;;;;;5075607;28;19958;-53
2022/06/02 14:46:05;;;;;;;;;;;19.60;97.50;;;;;;5075885;28;19908;-51
2022/06/02 14:48:34;;;;;;;;;;;19.60;97.50;;;;;;5075493;28;19997;-56
2022/06/02 14:51:11;;;;;;;;;;;19.60;97.50;;;;;;5075879;28;19915;-53
2022/06/02 14:53:45;;;;;;;;;;;19.60;97.50;;;;;;5075512;28;19928;-53
2022/06/02 14:56:19;;;;;;;;;;;19.60;97.50;;;;;;5075442;28;19916;-54
2022/06/02 14:58:56;;;;;;;;;;;19.60;97.50;;;;;;5075829;28;19999;-50
2022/06/02 15:01:32;;;;;;;;;;;19.60;97.60;;;;;;5075606;28;20313;-51
2022/06/02 15:04:00;;;;;;;;;;;19.60;97.60;;;;;;5076122;28;19917;-51
2022/06/02 15:06:58;;;;;;;;;;;19.60;97.50;;;;;;5075953;28;19935;-54
2022/06/02 15:09:30;;;;;;;;;;;19.60;97.50;;;;;;5020686;28;19909;-54
2022/06/02 15:12:01;;;;;;;;;;;19.60;97.50;;;;;;5075602;28;19954;-55
2022/06/02 15:14:45;;;;;;;;;;;19.60;97.50;;;;;;5074942;28;19944;-55
2022/06/02 15:17:13;;;;;;;;;;;19.60;97.60;;;;;;5074530;28;19915;-53
2022/06/02 15:19:48;;;;;;;;;;;19.60;97.60;;;;;;5057037;28;20359;-51
2022/06/02 15:22:13;;;;;;;;;;;19.60;97.50;;;;;;5075095;28;20358;-54